Time;durP1;ratioP1;P1;durP2;ratioP2;P2;SDS_P1;SDS_P2;PMS_P1;PMS_P2;Temp;Humidity;BMP_temperature;BMP_pressure;BME280_temperature;BME280_humidity;BME280_pressure;Samples;Min_cycle;Max_cycle;Signal;HPM_P1;HPM_P2
2023/09/15 00:00:20;;;;;;;7.90;4.32;;;;;;;;;;5090490;28;20052;-65
2023/09/15 00:02:47;;;;;;;7.65;3.38;;;;;;;;;;5090805;28;20044;-65
2023/09/15 00:05:15;;;;;;;7.63;4.05;;;;;;;;;;5090596;28;20125;-65
2023/09/15 00:07:41;;;;;;;5.68;3.00;;;;;;;;;;5090526;28;20127;-65
2023/09/15 00:10:11;;;;;;;10.52;4.28;;;;;;;;;;5090211;28;20043;-65
2023/09/15 00:12:40;;;;;;;8.63;3.92;;;;;;;;;;5091063;28;20124;-65
2023/09/15 00:15:07;;;;;;;7.15;3.65;;;;;;;;;;5090138;28;20042;-65
2023/09/15 00:17:37;;;;;;;6.85;3.55;;;;;;;;;;5090548;28;20145;-65
2023/09/15 00:20:10;;;;;;;8.63;4.55;;;;;;;;;;5090044;28;20051;-65
2023/09/15 00:22:36;;;;;;;8.20;4.82;;;;;;;;;;5090530;28;20040;-65
2023/09/15 00:25:03;;;;;;;6.72;4.00;;;;;;;;;;5090481;28;20123;-65
2023/09/15 00:27:30;;;;;;;9.93;3.47;;;;;;;;;;5090484;28;20036;-65
2023/09/15 00:29:57;;;;;;;10.77;4.57;;;;;;;;;;5090207;28;20519;-65
2023/09/15 00:32:23;;;;;;;7.88;4.03;;;;;;;;;;5090100;28;20650;-65
2023/09/15 00:34:49;;;;;;;7.85;4.10;;;;;;;;;;5090270;28;20051;-65
2023/09/15 00:37:16;;;;;;;6.95;4.55;;;;;;;;;;5090573;28;20036;-65
2023/09/15 00:39:42;;;;;;;7.15;3.60;;;;;;;;;;5090298;28;20055;-65
2023/09/15 00:42:09;;;;;;;7.78;4.20;;;;;;;;;;5089580;28;20044;-66
2023/09/15 00:44:35;;;;;;;12.73;5.00;;;;;;;;;;5089653;28;20040;-65
2023/09/15 00:47:03;;;;;;;10.85;4.63;;;;;;;;;;5089979;28;20040;-65
2023/09/15 00:49:30;;;;;;;12.50;4.40;;;;;;;;;;5090205;28;20042;-65
2023/09/15 00:51:56;;;;;;;7.00;4.68;;;;;;;;;;5089338;28;20067;-65
2023/09/15 00:54:23;;;;;;;10.52;5.38;;;;;;;;;;5090189;28;20044;-65
2023/09/15 00:56:49;;;;;;;8.98;4.57;;;;;;;;;;5089352;28;20118;-65
2023/09/15 00:59:16;;;;;;;7.85;4.00;;;;;;;;;;5090072;28;20047;-65
2023/09/15 01:01:42;;;;;;;6.55;3.47;;;;;;;;;;5089214;28;20040;-65
2023/09/15 01:04:09;;;;;;;7.40;4.75;;;;;;;;;;5090184;28;20101;-65
2023/09/15 01:06:37;;;;;;;12.20;5.25;;;;;;;;;;5089163;28;20043;-65
2023/09/15 01:09:05;;;;;;;6.32;4.03;;;;;;;;;;5089037;28;20472;-65
2023/09/15 01:11:31;;;;;;;7.43;4.32;;;;;;;;;;5089322;28;20039;-65
2023/09/15 01:13:58;;;;;;;9.30;4.03;;;;;;;;;;5089514;28;20114;-65
2023/09/15 01:16:30;;;;;;;6.32;3.58;;;;;;;;;;5097347;28;20122;-65
2023/09/15 01:18:59;;;;;;;8.00;4.75;;;;;;;;;;5090136;28;20050;-65
2023/09/15 01:21:55;;;;;;;7.50;4.60;;;;;;;;;;5088521;28;20040;-65
2023/09/15 01:24:25;;;;;;;10.07;4.50;;;;;;;;;;5076412;28;20048;-65
2023/09/15 01:27:00;;;;;;;7.28;4.18;;;;;;;;;;5089421;28;20040;-65
2023/09/15 01:29:46;;;;;;;8.20;4.97;;;;;;;;;;5089628;28;20044;-65
2023/09/15 01:32:12;;;;;;;9.68;5.18;;;;;;;;;;5085584;28;20119;-65
2023/09/15 01:34:45;;;;;;;16.42;5.57;;;;;;;;;;5089146;28;20043;-65
2023/09/15 01:37:11;;;;;;;8.77;5.10;;;;;;;;;;5089067;28;20040;-65
2023/09/15 01:39:37;;;;;;;7.55;4.60;;;;;;;;;;5088643;28;20040;-65
2023/09/15 01:42:04;;;;;;;11.75;4.25;;;;;;;;;;5089450;28;20039;-65
2023/09/15 01:44:30;;;;;;;8.52;4.25;;;;;;;;;;5080956;28;20127;-65
2023/09/15 01:46:57;;;;;;;7.18;4.80;;;;;;;;;;5088972;28;20491;-64
2023/09/15 01:49:24;;;;;;;12.20;5.20;;;;;;;;;;5089188;28;20075;-68
2023/09/15 01:51:51;;;;;;;8.77;4.82;;;;;;;;;;5089031;28;20122;-65
2023/09/15 01:54:18;;;;;;;10.65;4.55;;;;;;;;;;5089168;28;20032;-65
2023/09/15 01:56:45;;;;;;;8.75;4.88;;;;;;;;;;5087254;28;20126;-64
2023/09/15 01:59:12;;;;;;;7.85;4.15;;;;;;;;;;5090101;28;20131;-68
2023/09/15 02:01:38;;;;;;;9.57;4.70;;;;;;;;;;5090005;28;20460;-65
2023/09/15 02:04:05;;;;;;;9.02;5.18;;;;;;;;;;5089352;28;20076;-65
2023/09/15 02:06:32;;;;;;;10.73;5.78;;;;;;;;;;5089065;28;20130;-65
2023/09/15 02:08:58;;;;;;;10.27;5.20;;;;;;;;;;5089207;28;20100;-65
2023/09/15 02:11:25;;;;;;;7.53;4.50;;;;;;;;;;5088982;28;20044;-65
2023/09/15 02:13:51;;;;;;;10.73;5.28;;;;;;;;;;5088981;28;20443;-65
2023/09/15 02:16:17;;;;;;;11.90;5.57;;;;;;;;;;5088776;28;20132;-66
2023/09/15 02:18:44;;;;;;;10.60;4.72;;;;;;;;;;5089299;28;20044;-65
2023/09/15 02:21:11;;;;;;;9.88;4.78;;;;;;;;;;5090823;28;20058;-66
2023/09/15 02:23:38;;;;;;;9.02;5.55;;;;;;;;;;5093241;28;20066;-65
2023/09/15 02:26:04;;;;;;;8.93;4.95;;;;;;;;;;5091643;28;20066;-65
2023/09/15 02:28:31;;;;;;;9.80;4.75;;;;;;;;;;5092223;28;20048;-64
2023/09/15 02:30:58;;;;;;;7.03;4.82;;;;;;;;;;5092504;28;20047;-65
2023/09/15 02:33:24;;;;;;;11.23;5.30;;;;;;;;;;5092700;28;20068;-65
2023/09/15 02:35:52;;;;;;;6.60;4.88;;;;;;;;;;5092428;28;20044;-65
2023/09/15 02:38:18;;;;;;;8.15;5.18;;;;;;;;;;5092777;28;20048;-65
2023/09/15 02:40:44;;;;;;;9.98;5.28;;;;;;;;;;5092357;28;20082;-65
2023/09/15 02:43:11;;;;;;;7.60;4.53;;;;;;;;;;5092505;28;20063;-65
2023/09/15 02:45:37;;;;;;;8.20;4.47;;;;;;;;;;5092209;28;20044;-65
2023/09/15 02:48:05;;;;;;;11.52;5.47;;;;;;;;;;5092357;28;20047;-65
2023/09/15 02:50:32;;;;;;;8.00;5.20;;;;;;;;;;5092266;28;20093;-65
2023/09/15 02:52:59;;;;;;;10.85;5.68;;;;;;;;;;5092170;28;20600;-65
2023/09/15 02:55:25;;;;;;;8.13;5.22;;;;;;;;;;5092475;28;20101;-65
2023/09/15 02:57:52;;;;;;;7.85;5.47;;;;;;;;;;5092082;28;20477;-65
2023/09/15 03:00:20;;;;;;;10.98;5.25;;;;;;;;;;5092049;28;20044;-65
2023/09/15 03:02:47;;;;;;;10.05;6.22;;;;;;;;;;5092527;28;20088;-65
2023/09/15 03:05:13;;;;;;;9.65;5.22;;;;;;;;;;5091722;28;20051;-65
2023/09/15 03:07:40;;;;;;;10.77;4.50;;;;;;;;;;5092063;28;20129;-65
2023/09/15 03:10:07;;;;;;;11.80;5.38;;;;;;;;;;5091365;28;20032;-65
2023/09/15 03:12:34;;;;;;;9.65;5.93;;;;;;;;;;5091862;28;20044;-65
2023/09/15 03:15:06;;;;;;;12.98;5.82;;;;;;;;;;5091896;28;20115;-64
2023/09/15 03:17:33;;;;;;;8.43;5.55;;;;;;;;;;5091062;28;20042;-65
2023/09/15 03:20:00;;;;;;;8.77;5.57;;;;;;;;;;5090999;28;20067;-65
2023/09/15 03:22:27;;;;;;;9.55;5.93;;;;;;;;;;5091226;28;20044;-65
2023/09/15 03:24:57;;;;;;;15.48;6.95;;;;;;;;;;5092589;28;20573;-65
2023/09/15 03:27:23;;;;;;;8.98;5.65;;;;;;;;;;5091746;28;20123;-65
2023/09/15 03:29:49;;;;;;;9.52;4.85;;;;;;;;;;5091362;28;20046;-65
2023/09/15 03:32:16;;;;;;;13.18;5.20;;;;;;;;;;5091264;28;20078;-66
2023/09/15 03:34:43;;;;;;;7.80;5.10;;;;;;;;;;5091332;28;20036;-66
2023/09/15 03:37:09;;;;;;;14.48;5.28;;;;;;;;;;5091691;28;20048;-67
2023/09/15 03:39:39;;;;;;;12.40;5.28;;;;;;;;;;5091016;28;20054;-66
2023/09/15 03:42:05;;;;;;;11.27;5.75;;;;;;;;;;5091404;28;20396;-66
2023/09/15 03:44:32;;;;;;;8.45;5.57;;;;;;;;;;5091409;28;20083;-66
2023/09/15 03:46:59;;;;;;;10.70;5.72;;;;;;;;;;5091200;28;20132;-64
2023/09/15 03:49:25;;;;;;;12.93;6.03;;;;;;;;;;5091626;28;20047;-66
2023/09/15 03:51:52;;;;;;;8.85;5.65;;;;;;;;;;5090998;28;20081;-66
2023/09/15 03:54:18;;;;;;;9.98;6.13;;;;;;;;;;5091491;28;20047;-66
2023/09/15 03:56:45;;;;;;;10.98;5.60;;;;;;;;;;5087927;28;20139;-66
2023/09/15 03:59:13;;;;;;;11.20;5.97;;;;;;;;;;5090855;28;20080;-66
2023/09/15 04:01:39;;;;;;;9.57;6.45;;;;;;;;;;5090987;28;20197;-66
2023/09/15 04:04:06;;;;;;;15.80;8.23;;;;;;;;;;5091104;28;20385;-66
2023/09/15 04:06:33;;;;;;;9.52;5.88;;;;;;;;;;5090692;28;20055;-65
2023/09/15 04:09:00;;;;;;;10.13;5.75;;;;;;;;;;5090854;28;20124;-67
2023/09/15 04:11:26;;;;;;;10.52;6.47;;;;;;;;;;5090648;28;20040;-67
2023/09/15 04:13:52;;;;;;;10.35;5.90;;;;;;;;;;5090665;28;20127;-66
2023/09/15 04:16:19;;;;;;;7.65;5.30;;;;;;;;;;5091027;28;20551;-67
2023/09/15 04:18:45;;;;;;;8.30;5.38;;;;;;;;;;5091037;28;20061;-66
2023/09/15 04:21:12;;;;;;;10.23;5.57;;;;;;;;;;5091096;28;20089;-66
2023/09/15 04:23:38;;;;;;;12.95;6.38;;;;;;;;;;5092480;28;20044;-67
2023/09/15 04:26:05;;;;;;;8.35;6.03;;;;;;;;;;5090733;28;20496;-66
2023/09/15 04:28:31;;;;;;;9.85;5.63;;;;;;;;;;5090706;28;20453;-66
2023/09/15 04:30:58;;;;;;;9.85;5.90;;;;;;;;;;5090786;28;20050;-66
2023/09/15 04:33:24;;;;;;;15.05;6.30;;;;;;;;;;5090493;28;20070;-66
2023/09/15 04:35:51;;;;;;;18.02;7.20;;;;;;;;;;5090053;28;20122;-66
2023/09/15 04:38:17;;;;;;;11.77;7.25;;;;;;;;;;5090283;28;20062;-66
2023/09/15 04:40:44;;;;;;;8.98;5.72;;;;;;;;;;5090118;28;20064;-66
2023/09/15 04:43:12;;;;;;;10.50;5.80;;;;;;;;;;5089450;28;20538;-66
2023/09/15 04:45:39;;;;;;;9.07;6.30;;;;;;;;;;5090068;28;20047;-66
2023/09/15 04:48:05;;;;;;;9.20;6.07;;;;;;;;;;5090097;28;20050;-66
2023/09/15 04:50:36;;;;;;;11.18;6.82;;;;;;;;;;5089965;28;20046;-66
2023/09/15 04:53:04;;;;;;;10.67;5.83;;;;;;;;;;5090014;28;20048;-66
2023/09/15 04:55:31;;;;;;;11.32;7.10;;;;;;;;;;5089976;28;20477;-66
2023/09/15 04:57:57;;;;;;;12.07;6.20;;;;;;;;;;5090476;28;20078;-66
2023/09/15 05:00:25;;;;;;;10.75;5.90;;;;;;;;;;5090011;28;20051;-66
2023/09/15 05:02:52;;;;;;;11.40;6.10;;;;;;;;;;5090077;28;20423;-66
2023/09/15 05:05:18;;;;;;;14.50;7.38;;;;;;;;;;5089851;28;20495;-66
2023/09/15 05:07:45;;;;;;;17.83;5.78;;;;;;;;;;5090192;28;20097;-65
2023/09/15 05:10:11;;;;;;;13.43;5.57;;;;;;;;;;5089753;28;20119;-66
2023/09/15 05:12:38;;;;;;;26.20;9.43;;;;;;;;;;5089787;28;20063;-65
2023/09/15 05:15:04;;;;;;;10.73;6.10;;;;;;;;;;5089794;28;20085;-67
2023/09/15 05:17:31;;;;;;;31.98;17.58;;;;;;;;;;5090329;28;20449;-65
2023/09/15 05:19:58;;;;;;;20.58;6.82;;;;;;;;;;5089304;28;20040;-65
2023/09/15 05:22:24;;;;;;;10.52;6.30;;;;;;;;;;5089678;28;20542;-65
2023/09/15 05:24:52;;;;;;;13.45;6.85;;;;;;;;;;5088193;28;20089;-65
2023/09/15 05:27:21;;;;;;;19.57;6.30;;;;;;;;;;5089967;28;20040;-65
2023/09/15 05:29:48;;;;;;;14.20;5.68;;;;;;;;;;5089383;28;20368;-65
2023/09/15 05:32:14;;;;;;;12.10;6.57;;;;;;;;;;5089548;28;20070;-65
2023/09/15 05:34:41;;;;;;;15.55;7.15;;;;;;;;;;5081534;28;20036;-65
2023/09/15 05:37:07;;;;;;;11.45;6.30;;;;;;;;;;5089491;28;20500;-65
2023/09/15 05:39:34;;;;;;;13.00;6.43;;;;;;;;;;5089246;28;20063;-64
2023/09/15 05:42:00;;;;;;;11.88;7.13;;;;;;;;;;5089473;28;20080;-65
2023/09/15 05:44:26;;;;;;;11.98;6.78;;;;;;;;;;5089324;28;20079;-65
2023/09/15 05:46:53;;;;;;;12.45;7.18;;;;;;;;;;5088884;28;20131;-65
2023/09/15 05:49:20;;;;;;;11.52;6.70;;;;;;;;;;5089610;28;20051;-65
2023/09/15 05:51:46;;;;;;;14.77;8.57;;;;;;;;;;5089757;28;20048;-65
2023/09/15 05:54:13;;;;;;;12.40;6.60;;;;;;;;;;5089642;28;20127;-65
2023/09/15 05:56:40;;;;;;;12.90;6.50;;;;;;;;;;5088829;28;20043;-65
2023/09/15 05:59:07;;;;;;;14.63;6.45;;;;;;;;;;5089576;28;20090;-64
2023/09/15 06:01:33;;;;;;;16.80;7.10;;;;;;;;;;5088726;28;20473;-65
2023/09/15 06:04:00;;;;;;;16.90;7.28;;;;;;;;;;5089317;28;20438;-65
2023/09/15 06:06:27;;;;;;;11.52;6.30;;;;;;;;;;5089049;28;20438;-65
2023/09/15 06:08:53;;;;;;;18.60;7.70;;;;;;;;;;5089178;28;20122;-65
2023/09/15 06:11:20;;;;;;;16.33;7.47;;;;;;;;;;5088801;28;20464;-65
2023/09/15 06:13:47;;;;;;;14.35;7.68;;;;;;;;;;5089147;28;20131;-65
2023/09/15 06:16:13;;;;;;;12.63;7.25;;;;;;;;;;5088554;28;20052;-65
2023/09/15 06:18:40;;;;;;;10.27;6.47;;;;;;;;;;5088986;28;20447;-65
2023/09/15 06:21:06;;;;;;;11.40;6.72;;;;;;;;;;5088814;28;20051;-65
2023/09/15 06:23:33;;;;;;;11.50;7.13;;;;;;;;;;5088600;28;20076;-65
2023/09/15 06:25:59;;;;;;;11.27;6.57;;;;;;;;;;5088980;28;20435;-65
2023/09/15 06:28:26;;;;;;;14.25;7.82;;;;;;;;;;5088841;28;20048;-65
2023/09/15 06:30:52;;;;;;;17.83;7.53;;;;;;;;;;5089066;28;20043;-65
2023/09/15 06:33:19;;;;;;;10.63;6.47;;;;;;;;;;5088710;28;20457;-65
2023/09/15 06:35:45;;;;;;;13.25;8.27;;;;;;;;;;5088605;28;20151;-65
2023/09/15 06:38:12;;;;;;;12.93;7.35;;;;;;;;;;5088788;28;20701;-65
2023/09/15 06:40:38;;;;;;;17.05;7.95;;;;;;;;;;5088439;28;20047;-65
2023/09/15 06:43:07;;;;;;;9.80;7.15;;;;;;;;;;5088868;28;20048;-65
2023/09/15 06:45:34;;;;;;;15.27;8.05;;;;;;;;;;5090249;28;20043;-66
2023/09/15 06:48:01;;;;;;;12.57;6.78;;;;;;;;;;5090616;28;20048;-65
2023/09/15 06:50:27;;;;;;;13.73;6.95;;;;;;;;;;5088348;28;20040;-65
2023/09/15 06:52:54;;;;;;;16.23;7.07;;;;;;;;;;5089191;28;20123;-65
2023/09/15 06:55:20;;;;;;;14.85;6.82;;;;;;;;;;5087962;28;20111;-65
2023/09/15 06:57:47;;;;;;;12.68;8.18;;;;;;;;;;5089001;28;20438;-65
2023/09/15 07:00:14;;;;;;;14.38;7.82;;;;;;;;;;5088086;28;20047;-65
2023/09/15 07:02:40;;;;;;;13.38;6.95;;;;;;;;;;5088643;28;20048;-66
2023/09/15 07:05:07;;;;;;;14.10;6.85;;;;;;;;;;5088348;28;20040;-65
2023/09/15 07:07:33;;;;;;;11.43;6.93;;;;;;;;;;5091236;28;20040;-65
2023/09/15 07:10:00;;;;;;;14.50;7.97;;;;;;;;;;5091882;28;20080;-65
2023/09/15 07:12:27;;;;;;;14.32;5.50;;;;;;;;;;5091892;28;20093;-67
2023/09/15 07:14:53;;;;;;;13.95;6.35;;;;;;;;;;5091844;28;20468;-69
2023/09/15 07:17:20;;;;;;;14.70;5.80;;;;;;;;;;5090810;28;20052;-73
2023/09/15 07:19:47;;;;;;;12.10;5.65;;;;;;;;;;5092408;28;20070;-71
2023/09/15 07:22:13;;;;;;;9.93;5.75;;;;;;;;;;5091016;28;20066;-69
2023/09/15 07:24:42;;;;;;;12.95;6.38;;;;;;;;;;5098110;28;20047;-63
2023/09/15 07:27:09;;;;;;;10.93;5.00;;;;;;;;;;5083378;28;20124;-66
2023/09/15 07:29:36;;;;;;;21.27;6.68;;;;;;;;;;5102508;28;20035;-66
2023/09/15 07:32:03;;;;;;;21.35;6.30;;;;;;;;;;5095442;28;20078;-65
2023/09/15 07:34:29;;;;;;;11.48;4.65;;;;;;;;;;5107542;28;20032;-65
2023/09/15 07:36:56;;;;;;;11.00;5.20;;;;;;;;;;5092317;28;20127;-70
2023/09/15 07:39:23;;;;;;;10.15;5.40;;;;;;;;;;5090407;28;20056;-68
2023/09/15 07:41:49;;;;;;;8.88;5.07;;;;;;;;;;5091607;28;20079;-63
2023/09/15 07:44:15;;;;;;;11.98;5.28;;;;;;;;;;5104028;28;20044;-66
2023/09/15 07:46:42;;;;;;;8.48;5.40;;;;;;;;;;5089904;28;20075;-63
2023/09/15 07:49:10;;;;;;;36.75;8.15;;;;;;;;;;5097279;28;20123;-64
2023/09/15 07:51:36;;;;;;;12.43;5.30;;;;;;;;;;5090918;28;20043;-64
2023/09/15 07:54:03;;;;;;;9.52;4.57;;;;;;;;;;5093425;28;20044;-63
2023/09/15 07:56:29;;;;;;;8.35;4.93;;;;;;;;;;5097298;27;20060;-66
2023/09/15 07:58:56;;;;;;;11.55;5.00;;;;;;;;;;5090571;28;20580;-63
2023/09/15 08:01:22;;;;;;;10.13;4.68;;;;;;;;;;5089931;28;20070;-69
2023/09/15 08:03:49;;;;;;;9.10;4.38;;;;;;;;;;5090485;28;20050;-65
2023/09/15 08:06:16;;;;;;;9.80;5.03;;;;;;;;;;5095328;28;20081;-68
2023/09/15 08:08:43;;;;;;;12.98;4.47;;;;;;;;;;5089127;28;20044;-64
2023/09/15 08:11:09;;;;;;;14.18;4.90;;;;;;;;;;5086749;28;20051;-65
2023/09/15 08:13:36;;;;;;;6.95;4.05;;;;;;;;;;5096654;28;20055;-64
2023/09/15 08:16:02;;;;;;;10.57;4.93;;;;;;;;;;5089280;28;20055;-64
2023/09/15 08:18:29;;;;;;;10.57;4.10;;;;;;;;;;5097167;28;20035;-64
2023/09/15 08:20:55;;;;;;;8.75;4.97;;;;;;;;;;5090167;28;20036;-62
2023/09/15 08:23:22;;;;;;;7.60;3.75;;;;;;;;;;5097541;28;20073;-65
2023/09/15 08:25:48;;;;;;;8.35;3.72;;;;;;;;;;5078834;28;20115;-64
2023/09/15 08:28:15;;;;;;;7.00;4.22;;;;;;;;;;5090389;28;20039;-65
2023/09/15 08:30:44;;;;;;;8.68;3.88;;;;;;;;;;5089124;28;20075;-63
2023/09/15 08:33:10;;;;;;;8.98;3.40;;;;;;;;;;5094709;28;20695;-66
2023/09/15 08:35:39;;;;;;;9.23;3.78;;;;;;;;;;5095689;28;20040;-63
2023/09/15 08:38:06;;;;;;;8.68;3.70;;;;;;;;;;5095280;28;20067;-65
2023/09/15 08:40:41;;;;;;;10.00;3.95;;;;;;;;;;5092810;28;20040;-64
2023/09/15 08:43:08;;;;;;;11.05;3.28;;;;;;;;;;5091231;28;20040;-64
2023/09/15 08:45:35;;;;;;;6.35;2.97;;;;;;;;;;5090312;28;20048;-65
2023/09/15 08:48:04;;;;;;;9.27;3.33;;;;;;;;;;5093969;28;20098;-64
2023/09/15 08:50:32;;;;;;;10.65;3.30;;;;;;;;;;5090517;28;20040;-65
2023/09/15 08:53:02;;;;;;;4.95;2.85;;;;;;;;;;5094505;28;20544;-66
2023/09/15 08:55:28;;;;;;;6.18;3.17;;;;;;;;;;5092544;28;20171;-65
2023/09/15 08:57:56;;;;;;;5.88;2.75;;;;;;;;;;5088801;28;20473;-65
2023/09/15 09:00:23;;;;;;;5.68;2.58;;;;;;;;;;5089391;28;20198;-66
2023/09/15 09:02:51;;;;;;;5.95;2.67;;;;;;;;;;5087999;28;20032;-64
2023/09/15 09:05:18;;;;;;;4.55;2.47;;;;;;;;;;5098482;28;20068;-66
2023/09/15 09:07:45;;;;;;;7.78;2.72;;;;;;;;;;5094324;28;20126;-65
2023/09/15 09:10:12;;;;;;;4.28;3.08;;;;;;;;;;5091767;28;20043;-66
2023/09/15 09:12:38;;;;;;;4.07;2.22;;;;;;;;;;5089341;28;20059;-65
2023/09/15 09:15:05;;;;;;;7.65;3.33;;;;;;;;;;5098169;28;20044;-65
2023/09/15 09:17:31;;;;;;;8.32;2.38;;;;;;;;;;5093441;28;20080;-64
2023/09/15 09:19:58;;;;;;;3.42;2.13;;;;;;;;;;5104050;28;20089;-65
2023/09/15 09:22:24;;;;;;;5.63;2.65;;;;;;;;;;5094067;28;20055;-66
2023/09/15 09:24:57;;;;;;;5.40;2.13;;;;;;;;;;5093394;28;20036;-65
2023/09/15 09:27:32;;;;;;;4.70;2.15;;;;;;;;;;5093917;28;20043;-63
2023/09/15 09:29:58;;;;;;;4.45;2.10;;;;;;;;;;5097424;28;20051;-66
2023/09/15 09:32:25;;;;;;;4.15;2.13;;;;;;;;;;5096329;28;20495;-64
2023/09/15 09:34:52;;;;;;;7.38;2.63;;;;;;;;;;5092692;28;20044;-64
2023/09/15 09:37:23;;;;;;;7.20;3.03;;;;;;;;;;5090474;28;20044;-66
2023/09/15 09:39:49;;;;;;;5.82;2.30;;;;;;;;;;5087498;28;20039;-65
2023/09/15 09:42:16;;;;;;;4.35;2.00;;;;;;;;;;5089264;28;20119;-67
2023/09/15 09:44:43;;;;;;;5.68;2.92;;;;;;;;;;5094486;28;20127;-66
2023/09/15 09:47:09;;;;;;;5.57;2.47;;;;;;;;;;5093978;28;20039;-65
2023/09/15 09:49:37;;;;;;;11.30;2.28;;;;;;;;;;5095407;28;20044;-64
2023/09/15 09:52:03;;;;;;;5.72;2.05;;;;;;;;;;5092303;28;20429;-65
2023/09/15 09:54:31;;;;;;;5.85;2.10;;;;;;;;;;5104830;28;20040;-64
2023/09/15 09:56:58;;;;;;;4.35;2.35;;;;;;;;;;5091080;28;20396;-66
2023/09/15 09:59:26;;;;;;;4.13;2.05;;;;;;;;;;5088278;28;20534;-67
2023/09/15 10:01:53;;;;;;;6.45;2.40;;;;;;;;;;5093334;28;20055;-68
2023/09/15 10:04:21;;;;;;;6.03;2.72;;;;;;;;;;5093471;28;20513;-67
2023/09/15 10:06:49;;;;;;;6.22;2.42;;;;;;;;;;5087519;28;20511;-66
2023/09/15 10:09:15;;;;;;;6.30;2.00;;;;;;;;;;5092254;28;20480;-67
2023/09/15 10:11:43;;;;;;;5.68;2.65;;;;;;;;;;5087875;28;20076;-63
2023/09/15 10:14:10;;;;;;;4.72;2.40;;;;;;;;;;5088673;28;20048;-64
2023/09/15 10:16:36;;;;;;;7.82;2.88;;;;;;;;;;5086199;28;20071;-65
2023/09/15 10:19:03;;;;;;;6.38;2.50;;;;;;;;;;5087326;28;20072;-65
2023/09/15 10:21:32;;;;;;;4.90;2.42;;;;;;;;;;5086693;28;20036;-66
2023/09/15 10:24:06;;;;;;;5.30;2.40;;;;;;;;;;5087574;28;20093;-64
2023/09/15 10:26:33;;;;;;;5.63;2.80;;;;;;;;;;5087215;28;20070;-66
2023/09/15 10:29:01;;;;;;;4.10;2.08;;;;;;;;;;5094153;28;20400;-65
2023/09/15 10:31:29;;;;;;;4.57;2.58;;;;;;;;;;5091368;28;20117;-68
2023/09/15 10:34:00;;;;;;;6.40;2.75;;;;;;;;;;5093106;28;20046;-66
2023/09/15 10:36:27;;;;;;;4.70;2.30;;;;;;;;;;5091450;28;20062;-65
2023/09/15 10:38:54;;;;;;;9.07;2.88;;;;;;;;;;5091980;28;20742;-66
2023/09/15 10:41:28;;;;;;;4.97;2.05;;;;;;;;;;5092706;28;20125;-66
2023/09/15 10:43:57;;;;;;;3.40;2.20;;;;;;;;;;5092411;28;20043;-65
2023/09/15 10:46:37;;;;;;;7.07;2.30;;;;;;;;;;5088474;28;20086;-63
2023/09/15 10:49:18;;;;;;;6.47;2.40;;;;;;;;;;5091038;28;20067;-63
2023/09/15 10:51:54;;;;;;;4.83;2.20;;;;;;;;;;5089069;28;20491;-65
2023/09/15 10:54:23;;;;;;;4.15;2.00;;;;;;;;;;5090806;28;20359;-65
2023/09/15 10:56:49;;;;;;;5.32;2.38;;;;;;;;;;5091569;28;20044;-65
2023/09/15 10:59:16;;;;;;;3.70;1.98;;;;;;;;;;5091093;28;20044;-66
2023/09/15 11:01:45;;;;;;;5.18;2.05;;;;;;;;;;5090366;28;20108;-65
2023/09/15 11:04:13;;;;;;;8.63;2.17;;;;;;;;;;5091684;28;20079;-64
2023/09/15 11:06:39;;;;;;;4.30;2.45;;;;;;;;;;5089199;28;20040;-63
2023/09/15 11:09:06;;;;;;;4.53;2.20;;;;;;;;;;5088054;28;20095;-63
2023/09/15 11:11:33;;;;;;;6.20;2.83;;;;;;;;;;5092775;28;20032;-64
2023/09/15 11:14:00;;;;;;;4.63;2.20;;;;;;;;;;5088539;28;20483;-65
2023/09/15 11:16:27;;;;;;;5.43;2.42;;;;;;;;;;5087207;28;20964;-65
2023/09/15 11:18:59;;;;;;;5.32;2.40;;;;;;;;;;5091469;28;20043;-66
2023/09/15 11:21:27;;;;;;;5.05;1.80;;;;;;;;;;5092219;28;20947;-65
2023/09/15 11:23:56;;;;;;;6.72;2.22;;;;;;;;;;5099805;28;20115;-67
2023/09/15 11:26:23;;;;;;;4.80;2.15;;;;;;;;;;5101224;28;20036;-67
2023/09/15 11:28:54;;;;;;;7.60;2.20;;;;;;;;;;5088525;28;20109;-65
2023/09/15 11:31:21;;;;;;;5.22;1.65;;;;;;;;;;5090650;28;20074;-67
2023/09/15 11:33:47;;;;;;;6.63;2.00;;;;;;;;;;5089647;28;20074;-67
2023/09/15 11:36:15;;;;;;;4.20;1.75;;;;;;;;;;5085139;28;20075;-66
2023/09/15 11:38:44;;;;;;;3.97;1.83;;;;;;;;;;5089869;28;20115;-69
2023/09/15 11:41:12;;;;;;;4.22;1.92;;;;;;;;;;5087289;28;20561;-65
2023/09/15 11:43:39;;;;;;;4.93;2.13;;;;;;;;;;5090970;28;20063;-67
2023/09/15 11:46:07;;;;;;;6.50;2.17;;;;;;;;;;5088934;28;20044;-69
2023/09/15 11:48:38;;;;;;;5.10;2.05;;;;;;;;;;5086739;28;20120;-70
2023/09/15 11:51:06;;;;;;;3.58;2.35;;;;;;;;;;5086970;28;20059;-71
2023/09/15 11:53:36;;;;;;;4.70;2.75;;;;;;;;;;5088843;28;20051;-73
2023/09/15 11:56:03;;;;;;;;;;;;;;;;;;5088644;28;20462;-71
2023/09/15 11:58:31;;;;;;;4.05;1.55;;;;;;;;;;5090238;28;19978;-71
2023/09/15 12:00:57;;;;;;;9.40;1.90;;;;;;;;;;5092463;28;20110;-68
2023/09/15 12:03:24;;;;;;;5.63;2.60;;;;;;;;;;5089084;28;20123;-69
2023/09/15 12:05:52;;;;;;;5.45;2.50;;;;;;;;;;5088510;28;20097;-69
2023/09/15 12:08:18;;;;;;;4.15;1.80;;;;;;;;;;5088891;28;20533;-68
2023/09/15 12:10:46;;;;;;;5.82;2.10;;;;;;;;;;5089055;28;20036;-69
2023/09/15 12:13:35;;;;;;;4.88;1.50;;;;;;;;;;5089790;28;20457;-68
2023/09/15 12:16:02;;;;;;;3.42;2.00;;;;;;;;;;5090158;28;20048;-67
2023/09/15 12:18:29;;;;;;;7.13;2.03;;;;;;;;;;5088453;28;20132;-67
2023/09/15 12:20:55;;;;;;;6.13;1.90;;;;;;;;;;5088257;28;20129;-67
2023/09/15 12:23:22;;;;;;;5.75;2.58;;;;;;;;;;5089133;28;20048;-68
2023/09/15 12:25:48;;;;;;;4.13;2.00;;;;;;;;;;5088508;28;20564;-68
2023/09/15 12:28:16;;;;;;;5.70;1.85;;;;;;;;;;5087776;28;20075;-68
2023/09/15 12:30:45;;;;;;;6.90;2.50;;;;;;;;;;5089264;28;20080;-69
2023/09/15 12:33:16;;;;;;;3.85;2.03;;;;;;;;;;5088998;28;20048;-72
2023/09/15 12:35:45;;;;;;;6.45;1.52;;;;;;;;;;5089627;28;20062;-66
2023/09/15 12:38:12;;;;;;;7.15;2.20;;;;;;;;;;5087597;28;20128;-68
2023/09/15 12:40:38;;;;;;;2.70;1.67;;;;;;;;;;5089475;28;20040;-68
2023/09/15 12:43:05;;;;;;;7.53;2.33;;;;;;;;;;5085912;28;20035;-68
2023/09/15 12:45:32;;;;;;;6.55;1.88;;;;;;;;;;5091527;28;20048;-70
2023/09/15 12:47:58;;;;;;;3.30;1.98;;;;;;;;;;5088960;28;20490;-69
2023/09/15 12:50:25;;;;;;;3.90;1.88;;;;;;;;;;5090338;28;20051;-70
2023/09/15 12:52:51;;;;;;;4.07;1.70;;;;;;;;;;5088057;28;20054;-69
2023/09/15 12:55:18;;;;;;;5.47;1.67;;;;;;;;;;5090471;28;20048;-69
2023/09/15 12:57:44;;;;;;;5.35;1.50;;;;;;;;;;5083293;28;20427;-69
2023/09/15 13:00:11;;;;;;;3.13;1.75;;;;;;;;;;5086332;28;20052;-70
2023/09/15 13:02:37;;;;;;;6.25;2.20;;;;;;;;;;5082729;28;20105;-69
2023/09/15 13:05:04;;;;;;;4.25;2.15;;;;;;;;;;5089333;28;20040;-68
2023/09/15 13:07:36;;;;;;;3.58;2.10;;;;;;;;;;5085143;28;20448;-67
2023/09/15 13:10:04;;;;;;;4.55;1.85;;;;;;;;;;5087682;28;20040;-69
2023/09/15 13:12:31;;;;;;;3.75;1.92;;;;;;;;;;5088801;28;20084;-69
2023/09/15 13:14:57;;;;;;;4.90;1.58;;;;;;;;;;5086283;28;20063;-71
2023/09/15 13:17:24;;;;;;;4.35;2.00;;;;;;;;;;5086357;28;20491;-71
2023/09/15 13:19:50;;;;;;;5.63;2.25;;;;;;;;;;5087988;28;20143;-68
2023/09/15 13:22:18;;;;;;;4.80;1.95;;;;;;;;;;5088321;28;20071;-65
2023/09/15 13:24:44;;;;;;;3.17;1.60;;;;;;;;;;5086254;28;20153;-67
2023/09/15 13:27:11;;;;;;;6.88;2.03;;;;;;;;;;5078515;28;20071;-69
2023/09/15 13:29:38;;;;;;;3.55;1.70;;;;;;;;;;5079953;28;20043;-68
2023/09/15 13:32:05;;;;;;;4.93;2.13;;;;;;;;;;5084949;28;20040;-72
2023/09/15 13:34:32;;;;;;;3.15;1.63;;;;;;;;;;5088221;28;20048;-67
2023/09/15 13:36:59;;;;;;;3.33;1.83;;;;;;;;;;5087895;28;20135;-65
2023/09/15 13:39:25;;;;;;;3.78;2.35;;;;;;;;;;5084738;28;20040;-66
2023/09/15 13:41:52;;;;;;;5.45;2.17;;;;;;;;;;5086947;28;20044;-69
2023/09/15 13:44:18;;;;;;;3.15;2.10;;;;;;;;;;5087789;28;20040;-72
2023/09/15 13:46:45;;;;;;;3.78;1.73;;;;;;;;;;5087187;28;20052;-70
2023/09/15 13:49:12;;;;;;;6.28;1.80;;;;;;;;;;5080291;28;20045;-70
2023/09/15 13:51:38;;;;;;;2.90;1.40;;;;;;;;;;5085911;28;20055;-65
2023/09/15 13:54:08;;;;;;;4.53;1.70;;;;;;;;;;5087387;28;20048;-64
2023/09/15 13:56:35;;;;;;;4.35;2.15;;;;;;;;;;5084689;28;20039;-67
2023/09/15 13:59:01;;;;;;;4.70;2.00;;;;;;;;;;5085887;28;20060;-65
2023/09/15 14:01:29;;;;;;;4.28;1.92;;;;;;;;;;5086811;28;20075;-65
2023/09/15 14:03:57;;;;;;;3.20;1.67;;;;;;;;;;5087741;28;20097;-64
2023/09/15 14:06:24;;;;;;;3.22;1.52;;;;;;;;;;5088399;28;20176;-64
2023/09/15 14:08:52;;;;;;;5.03;1.50;;;;;;;;;;5085183;28;20071;-63
2023/09/15 14:11:18;;;;;;;4.20;1.88;;;;;;;;;;5084972;28;20044;-63
2023/09/15 14:13:45;;;;;;;4.60;1.95;;;;;;;;;;5085824;28;20048;-64
2023/09/15 14:16:12;;;;;;;3.65;2.30;;;;;;;;;;5088688;28;20046;-64
2023/09/15 14:18:38;;;;;;;5.82;2.00;;;;;;;;;;5097573;27;20051;-63
2023/09/15 14:21:05;;;;;;;5.10;1.88;;;;;;;;;;5100802;28;20086;-64
2023/09/15 14:23:32;;;;;;;4.43;1.67;;;;;;;;;;5090163;28;20044;-64
2023/09/15 14:25:58;;;;;;;3.63;1.40;;;;;;;;;;5090227;28;20044;-64
2023/09/15 14:28:27;;;;;;;3.38;2.05;;;;;;;;;;5095117;28;20052;-64
2023/09/15 14:30:54;;;;;;;2.92;1.73;;;;;;;;;;5091879;28;20525;-64
2023/09/15 14:33:21;;;;;;;2.85;1.58;;;;;;;;;;5088909;28;20089;-64
2023/09/15 14:35:49;;;;;;;3.85;2.05;;;;;;;;;;5090511;28;20044;-63
2023/09/15 14:38:15;;;;;;;4.28;1.80;;;;;;;;;;5089990;28;20047;-63